Time;durP1;ratioP1;P1;durP2;ratioP2;P2;SDS_P1;SDS_P2;PMS_P1;PMS_P2;Temp;Humidity;BMP_temperature;BMP_pressure;BME280_temperature;BME280_humidity;BME280_pressure;Samples;Min_cycle;Max_cycle;Signal;HPM_P1;HPM_P2
2021/12/08 00:01:11;;;;;;;36.05;22.88;;;;;;;;;;4972689;28;20015;-76
2021/12/08 00:03:38;;;;;;;36.70;23.20;;;;;;;;;;4974469;28;20071;-76
2021/12/08 00:06:04;;;;;;;35.65;22.70;;;;;;;;;;4974373;28;20019;-77
2021/12/08 00:08:32;;;;;;;39.47;23.45;;;;;;;;;;4973918;28;20034;-77
2021/12/08 00:13:30;;;;;;;38.45;23.25;;;;;;;;;;4973385;28;20042;-77
2021/12/08 00:15:58;;;;;;;37.78;23.73;;;;;;;;;;4974281;28;20018;-76
2021/12/08 00:18:26;;;;;;;38.63;23.88;;;;;;;;;;4973998;28;20034;-76
2021/12/08 00:20:54;;;;;;;38.30;24.13;;;;;;;;;;4972316;28;20053;-77
2021/12/08 00:23:21;;;;;;;39.00;24.70;;;;;;;;;;4973524;28;20500;-77
2021/12/08 00:25:47;;;;;;;38.92;23.77;;;;;;;;;;4973785;28;20058;-76
2021/12/08 00:28:14;;;;;;;36.55;24.05;;;;;;;;;;4973316;28;20023;-77
2021/12/08 00:30:42;;;;;;;39.97;24.30;;;;;;;;;;4972734;28;20051;-77
2021/12/08 00:33:09;;;;;;;41.75;24.67;;;;;;;;;;4973133;28;20027;-77
2021/12/08 00:35:36;;;;;;;36.92;23.75;;;;;;;;;;4973744;28;20118;-77
2021/12/08 00:38:03;;;;;;;35.50;23.20;;;;;;;;;;4973297;28;20039;-76
2021/12/08 00:40:29;;;;;;;41.38;24.00;;;;;;;;;;4974068;28;20384;-76
2021/12/08 00:42:55;;;;;;;41.15;24.17;;;;;;;;;;4972841;28;20027;-76
2021/12/08 00:45:23;;;;;;;39.33;24.50;;;;;;;;;;4973764;28;20027;-76
2021/12/08 00:47:50;;;;;;;40.25;24.38;;;;;;;;;;4973001;28;20027;-77
2021/12/08 00:50:17;;;;;;;43.90;26.13;;;;;;;;;;4973413;28;20031;-77
2021/12/08 00:52:43;;;;;;;39.50;24.83;;;;;;;;;;4973340;28;20031;-77
2021/12/08 00:55:11;;;;;;;41.30;25.25;;;;;;;;;;4973319;28;20031;-77
2021/12/08 00:57:38;;;;;;;44.70;27.23;;;;;;;;;;4973755;28;20034;-77
2021/12/08 01:00:06;;;;;;;44.17;25.70;;;;;;;;;;4973268;28;20086;-76
2021/12/08 01:02:33;;;;;;;40.20;25.65;;;;;;;;;;4972687;28;20102;-76
2021/12/08 01:05:00;;;;;;;40.83;25.75;;;;;;;;;;4976531;28;20511;-76
2021/12/08 01:07:26;;;;;;;42.15;26.42;;;;;;;;;;4976834;28;20031;-76
2021/12/08 01:09:52;;;;;;;41.67;25.63;;;;;;;;;;4976942;28;20473;-76
2021/12/08 01:12:18;;;;;;;45.70;26.65;;;;;;;;;;4977492;28;20117;-76
2021/12/08 01:14:44;;;;;;;42.17;26.42;;;;;;;;;;4976063;28;20050;-76
2021/12/08 01:17:10;;;;;;;43.72;27.10;;;;;;;;;;4977665;28;20400;-76
2021/12/08 01:19:36;;;;;;;47.67;26.65;;;;;;;;;;4977738;28;20026;-76
2021/12/08 01:22:03;;;;;;;45.72;27.02;;;;;;;;;;4977965;28;20031;-77
2021/12/08 01:24:29;;;;;;;43.28;26.70;;;;;;;;;;4977117;28;20064;-76
2021/12/08 01:26:55;;;;;;;42.50;26.20;;;;;;;;;;4976906;28;20026;-77
2021/12/08 01:29:21;;;;;;;46.38;26.85;;;;;;;;;;4976190;28;20042;-76
2021/12/08 01:31:47;;;;;;;45.88;27.25;;;;;;;;;;4976549;28;20189;-76
2021/12/08 01:34:13;;;;;;;44.78;27.83;;;;;;;;;;4976743;28;20361;-77
2021/12/08 01:36:40;;;;;;;50.40;28.10;;;;;;;;;;4976591;28;20034;-77
2021/12/08 01:39:07;;;;;;;43.40;25.83;;;;;;;;;;4976743;28;20392;-77
2021/12/08 01:41:33;;;;;;;45.42;26.30;;;;;;;;;;4977048;28;20105;-76
2021/12/08 01:46:53;;;;;;;43.90;26.02;;;;;;;;;;4946450;28;20042;-77
2021/12/08 01:49:19;;;;;;;43.70;26.45;;;;;;;;;;4976620;28;20033;-77
2021/12/08 01:51:45;;;;;;;43.40;26.48;;;;;;;;;;4959187;28;20069;-77
2021/12/08 01:54:11;;;;;;;43.13;25.67;;;;;;;;;;4976769;28;20495;-77
2021/12/08 01:56:38;;;;;;;45.05;26.98;;;;;;;;;;4975448;28;20038;-77
2021/12/08 01:59:05;;;;;;;44.15;26.83;;;;;;;;;;4976360;28;20485;-77
2021/12/08 02:01:33;;;;;;;45.97;27.35;;;;;;;;;;4975861;28;20043;-76
2021/12/08 02:04:04;;;;;;;47.90;27.83;;;;;;;;;;4975988;28;20477;-77
2021/12/08 02:06:30;;;;;;;48.10;27.40;;;;;;;;;;4976412;28;20479;-76
2021/12/08 02:08:56;;;;;;;47.22;27.92;;;;;;;;;;4975595;28;20400;-77
2021/12/08 02:11:22;;;;;;;47.53;27.85;;;;;;;;;;4956871;29;20035;-76
2021/12/08 02:13:52;;;;;;;50.83;29.95;;;;;;;;;;4972680;28;20101;-76
2021/12/08 02:16:18;;;;;;;47.30;28.67;;;;;;;;;;4975545;28;20030;-77
2021/12/08 02:18:48;;;;;;;50.50;29.77;;;;;;;;;;4976297;28;20035;-77
2021/12/08 02:21:23;;;;;;;47.15;28.17;;;;;;;;;;4960459;28;20506;-77
2021/12/08 02:23:49;;;;;;;50.25;29.75;;;;;;;;;;4975193;28;20062;-76
2021/12/08 02:26:16;;;;;;;51.42;31.17;;;;;;;;;;4975479;28;20070;-77
2021/12/08 02:28:43;;;;;;;50.85;30.35;;;;;;;;;;4975193;28;20030;-76
2021/12/08 02:31:13;;;;;;;57.13;32.25;;;;;;;;;;4975102;28;20095;-76
2021/12/08 02:49:49;;;;;;;53.55;31.35;;;;;;;;;;4975157;28;20521;-77
2021/12/08 02:52:15;;;;;;;50.75;29.98;;;;;;;;;;4974900;28;20019;-77
2021/12/08 02:54:47;;;;;;;50.95;31.13;;;;;;;;;;4974050;28;20112;-77
2021/12/08 02:57:14;;;;;;;49.80;30.17;;;;;;;;;;4956183;29;20122;-76
2021/12/08 02:59:41;;;;;;;49.30;30.52;;;;;;;;;;4968183;28;20082;-77
2021/12/08 03:02:07;;;;;;;52.03;29.58;;;;;;;;;;4973941;28;20037;-77
2021/12/08 03:04:33;;;;;;;52.13;29.20;;;;;;;;;;4974443;28;20459;-76
2021/12/08 03:06:59;;;;;;;51.53;30.83;;;;;;;;;;4973327;28;20015;-77
2021/12/08 03:09:26;;;;;;;49.95;28.50;;;;;;;;;;4975705;28;20033;-76
2021/12/08 03:11:54;;;;;;;49.35;29.33;;;;;;;;;;4974799;28;20031;-76
2021/12/08 03:14:20;;;;;;;53.17;31.85;;;;;;;;;;4956634;29;20028;-77
2021/12/08 03:16:51;;;;;;;53.70;30.85;;;;;;;;;;4965059;28;20027;-77
2021/12/08 03:19:18;;;;;;;53.13;31.90;;;;;;;;;;4975509;28;20510;-77
2021/12/08 03:21:45;;;;;;;56.03;32.17;;;;;;;;;;4974967;28;20412;-77
2021/12/08 03:24:29;;;;;;;55.83;31.33;;;;;;;;;;4975426;28;20041;-76
2021/12/08 03:27:08;;;;;;;63.90;32.17;;;;;;;;;;4957121;28;20038;-76
2021/12/08 03:32:12;;;;;;;57.80;32.17;;;;;;;;;;4974263;28;20075;-76
2021/12/08 03:34:41;;;;;;;55.50;32.63;;;;;;;;;;4975136;28;20501;-76
2021/12/08 03:37:10;;;;;;;51.67;31.60;;;;;;;;;;4975077;28;20031;-77
2021/12/08 03:39:39;;;;;;;56.10;31.38;;;;;;;;;;4975245;28;20056;-76
2021/12/08 03:42:05;;;;;;;53.33;31.10;;;;;;;;;;4975397;28;20082;-76
2021/12/08 03:44:32;;;;;;;59.42;34.13;;;;;;;;;;4974123;28;20082;-76
2021/12/08 03:47:01;;;;;;;54.78;32.17;;;;;;;;;;4974925;28;20066;-77
2021/12/08 03:49:28;;;;;;;57.65;32.50;;;;;;;;;;4974855;28;20388;-76
2021/12/08 03:51:58;;;;;;;56.95;32.42;;;;;;;;;;4975181;28;20086;-76
2021/12/08 03:54:24;;;;;;;55.20;33.22;;;;;;;;;;4974513;28;20034;-76
2021/12/08 03:56:50;;;;;;;61.22;33.47;;;;;;;;;;4974989;28;20027;-76
2021/12/08 03:59:16;;;;;;;56.72;34.08;;;;;;;;;;4973823;28;20034;-76
2021/12/08 04:01:42;;;;;;;58.80;33.33;;;;;;;;;;4974894;28;20090;-76
2021/12/08 04:04:10;;;;;;;57.80;33.28;;;;;;;;;;4973637;28;20027;-76
2021/12/08 04:06:46;;;;;;;58.17;33.90;;;;;;;;;;4974759;28;20030;-78
2021/12/08 04:09:39;;;;;;;57.97;32.20;;;;;;;;;;4957271;28;20506;-76
2021/12/08 04:12:06;;;;;;;58.43;33.50;;;;;;;;;;4975374;28;20031;-76
2021/12/08 04:14:34;;;;;;;60.10;34.38;;;;;;;;;;4975289;28;20042;-76
2021/12/08 04:17:21;;;;;;;57.35;33.55;;;;;;;;;;4972384;28;20047;-76
2021/12/08 04:19:47;;;;;;;58.92;32.97;;;;;;;;;;4974546;28;20049;-76
2021/12/08 04:22:19;;;;;;;63.92;34.80;;;;;;;;;;4957551;28;20157;-76
2021/12/08 04:24:46;;;;;;;60.50;34.67;;;;;;;;;;4974380;28;20026;-76
2021/12/08 04:27:16;;;;;;;60.63;34.63;;;;;;;;;;4974352;28;20031;-76
2021/12/08 04:29:43;;;;;;;63.42;36.13;;;;;;;;;;4975539;28;20439;-75
2021/12/08 04:32:14;;;;;;;61.15;34.40;;;;;;;;;;4974268;28;20043;-76
2021/12/08 04:34:41;;;;;;;64.28;34.80;;;;;;;;;;4974989;28;20034;-76
2021/12/08 04:37:15;;;;;;;59.60;34.20;;;;;;;;;;4972862;28;20468;-76
2021/12/08 04:40:10;;;;;;;61.58;34.28;;;;;;;;;;4978427;28;20023;-76
2021/12/08 04:43:11;;;;;;;72.55;36.65;;;;;;;;;;4978304;28;20055;-76
2021/12/08 04:45:40;;;;;;;72.57;36.75;;;;;;;;;;4973875;28;20027;-76
2021/12/08 04:51:01;;;;;;;69.85;38.30;;;;;;;;;;4978621;28;20515;-76
2021/12/08 05:04:51;;;;;;;66.78;36.80;;;;;;;;;;4881065;29;20068;-76
2021/12/08 05:10:14;;;;;;;68.97;36.20;;;;;;;;;;4905029;29;20595;-76
2021/12/08 05:12:40;;;;;;;67.80;35.00;;;;;;;;;;4898652;29;20029;-77
2021/12/08 05:15:06;;;;;;;92.53;48.20;;;;;;;;;;4898461;29;20045;-75
2021/12/08 05:17:37;;;;;;;102.65;54.85;;;;;;;;;;4898187;29;20063;-76
2021/12/08 05:20:08;;;;;;;84.18;47.83;;;;;;;;;;4898829;29;20077;-76
2021/12/08 05:22:36;;;;;;;79.57;43.72;;;;;;;;;;4898999;29;20036;-76
2021/12/08 05:25:05;;;;;;;72.82;40.78;;;;;;;;;;4899169;29;20520;-76
2021/12/08 05:27:34;;;;;;;75.20;39.42;;;;;;;;;;4899151;29;20607;-76
2021/12/08 05:30:06;;;;;;;75.57;41.35;;;;;;;;;;4920372;28;20054;-76
2021/12/08 05:32:33;;;;;;;71.40;38.60;;;;;;;;;;4976970;28;20081;-76
2021/12/08 05:34:59;;;;;;;69.40;38.05;;;;;;;;;;4977268;28;20027;-76
2021/12/08 05:37:26;;;;;;;71.55;37.92;;;;;;;;;;4976168;28;20031;-76
2021/12/08 05:39:53;;;;;;;68.75;37.63;;;;;;;;;;4976466;28;20113;-75
2021/12/08 05:42:21;;;;;;;68.95;37.58;;;;;;;;;;4976072;28;20019;-75
2021/12/08 05:44:47;;;;;;;69.50;37.70;;;;;;;;;;4976089;28;20043;-76
2021/12/08 05:47:16;;;;;;;68.93;37.03;;;;;;;;;;4977397;28;20106;-75
2021/12/08 05:49:43;;;;;;;69.35;37.05;;;;;;;;;;4976187;28;20027;-75
2021/12/08 05:52:09;;;;;;;69.07;38.00;;;;;;;;;;4976529;28;20027;-76
2021/12/08 05:54:37;;;;;;;69.68;37.78;;;;;;;;;;4977479;28;20023;-77
2021/12/08 05:57:26;;;;;;;71.25;37.35;;;;;;;;;;4976656;28;20045;-76
2021/12/08 05:59:53;;;;;;;64.78;36.58;;;;;;;;;;4911780;29;20401;-75
2021/12/08 06:02:22;;;;;;;67.97;35.70;;;;;;;;;;4897811;29;20075;-76
2021/12/08 06:04:48;;;;;;;69.63;37.20;;;;;;;;;;4900180;29;20463;-77
2021/12/08 06:07:15;;;;;;;69.97;36.72;;;;;;;;;;4901258;29;20044;-76
2021/12/08 06:09:41;;;;;;;75.22;39.13;;;;;;;;;;4880396;29;20044;-75
2021/12/08 06:12:09;;;;;;;79.07;42.53;;;;;;;;;;4879377;29;20041;-76
2021/12/08 06:14:36;;;;;;;76.70;39.63;;;;;;;;;;4889342;29;20060;-75
2021/12/08 06:17:06;;;;;;;73.78;37.30;;;;;;;;;;4914516;29;20083;-77
2021/12/08 06:19:33;;;;;;;69.38;39.00;;;;;;;;;;4901471;29;20051;-76
2021/12/08 06:21:59;;;;;;;65.85;36.63;;;;;;;;;;4895648;29;20112;-74
2021/12/08 06:24:26;;;;;;;73.65;40.03;;;;;;;;;;4902362;29;20120;-84
2021/12/08 06:26:52;;;;;;;78.00;42.97;;;;;;;;;;4907826;29;20033;-76
2021/12/08 06:29:19;;;;;;;79.32;42.00;;;;;;;;;;4900907;29;20040;-75
2021/12/08 06:31:52;;;;;;;87.93;43.45;;;;;;;;;;4905332;29;20096;-80
2021/12/08 06:34:26;;;;;;;87.53;47.90;;;;;;;;;;4911679;29;20047;-79
2021/12/08 06:37:05;;;;;;;77.60;45.05;;;;;;;;;;4954469;28;20039;-79
2021/12/08 06:39:49;;;;;;;75.78;43.95;;;;;;;;;;4978356;28;20031;-79
2021/12/08 06:42:17;;;;;;;73.07;43.42;;;;;;;;;;4975878;28;20042;-77
2021/12/08 06:45:03;;;;;;;65.80;39.38;;;;;;;;;;4973264;28;20026;-78
2021/12/08 06:47:38;;;;;;;70.35;39.83;;;;;;;;;;4992190;28;20054;-77
2021/12/08 06:50:08;;;;;;;96.57;51.28;;;;;;;;;;4973053;28;20057;-75
2021/12/08 06:52:39;;;;;;;64.97;39.50;;;;;;;;;;4963989;28;20400;-73
2021/12/08 06:55:27;;;;;;;67.22;39.30;;;;;;;;;;4985198;28;20007;-72
2021/12/08 06:57:56;;;;;;;57.47;34.55;;;;;;;;;;4954670;29;20517;-74
2021/12/08 07:00:50;;;;;;;55.97;34.65;;;;;;;;;;4968632;28;20497;-75
2021/12/08 07:06:10;;;;;;;73.18;38.40;;;;;;;;;;4979332;28;20420;-77
2021/12/08 07:08:47;;;;;;;72.13;36.47;;;;;;;;;;4982541;28;20022;-74
2021/12/08 07:11:14;;;;;;;54.42;29.88;;;;;;;;;;4980735;28;20397;-73
2021/12/08 07:13:43;;;;;;;52.17;29.58;;;;;;;;;;4985662;28;20058;-73
2021/12/08 07:16:11;;;;;;;53.35;29.17;;;;;;;;;;4975643;28;20018;-75
2021/12/08 07:18:50;;;;;;;60.08;32.65;;;;;;;;;;4971713;28;20497;-74
2021/12/08 07:21:16;;;;;;;61.65;32.53;;;;;;;;;;4969336;28;20027;-74
2021/12/08 07:23:47;;;;;;;124.22;62.03;;;;;;;;;;4973745;28;20081;-76
2021/12/08 07:26:22;;;;;;;88.30;44.17;;;;;;;;;;4974966;28;20054;-74
2021/12/08 07:28:49;;;;;;;74.78;39.70;;;;;;;;;;4973456;28;20495;-75
2021/12/08 07:31:21;;;;;;;73.47;38.78;;;;;;;;;;4971099;28;20101;-75
2021/12/08 07:33:48;;;;;;;72.72;39.50;;;;;;;;;;4968579;28;20031;-75
2021/12/08 07:36:17;;;;;;;78.10;41.92;;;;;;;;;;4975332;28;20502;-77
2021/12/08 07:38:45;;;;;;;68.68;39.85;;;;;;;;;;4979208;28;20039;-78
2021/12/08 07:41:18;;;;;;;77.93;43.92;;;;;;;;;;4982979;28;20030;-77
2021/12/08 07:43:48;;;;;;;65.72;37.08;;;;;;;;;;4974866;28;20035;-76
2021/12/08 07:46:19;;;;;;;59.92;35.08;;;;;;;;;;4984028;28;20078;-75
2021/12/08 07:48:48;;;;;;;51.08;30.85;;;;;;;;;;4964350;28;20035;-77
2021/12/08 07:51:34;;;;;;;56.65;30.80;;;;;;;;;;4966019;28;20038;-73
2021/12/08 07:54:01;;;;;;;54.63;30.40;;;;;;;;;;4963140;28;20445;-72
2021/12/08 07:56:28;;;;;;;50.47;29.52;;;;;;;;;;4977931;28;20037;-75
2021/12/08 07:58:56;;;;;;;51.63;33.13;;;;;;;;;;4975302;28;20037;-75
2021/12/08 08:01:25;;;;;;;51.45;31.58;;;;;;;;;;4972094;28;20056;-75
2021/12/08 08:03:52;;;;;;;50.03;31.70;;;;;;;;;;4979275;28;20046;-74
2021/12/08 08:06:21;;;;;;;49.42;30.08;;;;;;;;;;4973543;28;20037;-74
2021/12/08 08:08:48;;;;;;;49.10;28.77;;;;;;;;;;4973238;28;20058;-75
2021/12/08 08:11:19;;;;;;;42.33;25.83;;;;;;;;;;4973915;28;20482;-74
2021/12/08 08:13:45;;;;;;;40.80;25.20;;;;;;;;;;4971223;28;20015;-77
2021/12/08 08:16:14;;;;;;;42.13;25.85;;;;;;;;;;4981113;28;20512;-76
2021/12/08 08:18:55;;;;;;;42.38;24.83;;;;;;;;;;4993435;28;20106;-76
2021/12/08 08:21:23;;;;;;;41.72;26.20;;;;;;;;;;4993862;28;20046;-76
2021/12/08 08:23:50;;;;;;;45.28;28.27;;;;;;;;;;4973189;28;20511;-76
2021/12/08 08:26:16;;;;;;;51.42;30.35;;;;;;;;;;4980722;28;20018;-75
2021/12/08 08:28:44;;;;;;;49.35;29.63;;;;;;;;;;4982827;28;20077;-74
2021/12/08 08:31:17;;;;;;;47.42;27.27;;;;;;;;;;4989581;28;20057;-74
2021/12/08 08:33:46;;;;;;;42.70;26.05;;;;;;;;;;4966099;28;20018;-75
2021/12/08 08:36:15;;;;;;;41.90;26.60;;;;;;;;;;4982464;28;20081;-75
2021/12/08 08:38:43;;;;;;;40.72;25.83;;;;;;;;;;4991136;28;20042;-76
2021/12/08 08:41:19;;;;;;;42.55;27.17;;;;;;;;;;4963555;28;20090;-76
2021/12/08 08:43:46;;;;;;;48.53;26.48;;;;;;;;;;4979370;28;20030;-75
2021/12/08 08:46:19;;;;;;;39.08;25.42;;;;;;;;;;4993710;28;20030;-78
2021/12/08 08:48:59;;;;;;;43.63;26.98;;;;;;;;;;4984031;28;20031;-79
2021/12/08 08:51:38;;;;;;;43.88;25.20;;;;;;;;;;4984958;28;20022;-75
2021/12/08 08:54:08;;;;;;;35.50;24.50;;;;;;;;;;4971385;28;20034;-74
2021/12/08 08:56:37;;;;;;;39.67;25.10;;;;;;;;;;4979551;28;20023;-74
2021/12/08 08:59:08;;;;;;;35.28;23.90;;;;;;;;;;4978467;28;20035;-75
2021/12/08 09:01:39;;;;;;;38.72;23.85;;;;;;;;;;4984220;28;20026;-77
2021/12/08 09:04:08;;;;;;;38.70;24.80;;;;;;;;;;4984336;28;20027;-75
2021/12/08 09:06:37;;;;;;;37.42;23.85;;;;;;;;;;4980877;28;20109;-77
2021/12/08 09:09:07;;;;;;;47.92;28.85;;;;;;;;;;4979065;28;20037;-74
2021/12/08 09:11:35;;;;;;;48.25;28.40;;;;;;;;;;4980895;28;20065;-76
2021/12/08 09:14:07;;;;;;;40.42;25.25;;;;;;;;;;4977163;28;20114;-76
2021/12/08 09:16:37;;;;;;;38.35;25.00;;;;;;;;;;4980622;28;20046;-75
2021/12/08 09:19:07;;;;;;;40.00;22.60;;;;;;;;;;4974371;28;20042;-77
2021/12/08 09:21:33;;;;;;;36.78;21.88;;;;;;;;;;4977521;28;20030;-75
2021/12/08 09:24:06;;;;;;;33.90;21.13;;;;;;;;;;4973990;28;20079;-76
2021/12/08 09:26:34;;;;;;;36.30;23.05;;;;;;;;;;4984813;28;20027;-77
2021/12/08 09:29:14;;;;;;;34.17;22.17;;;;;;;;;;4986287;28;20030;-77
2021/12/08 09:31:44;;;;;;;36.22;21.88;;;;;;;;;;4985268;28;20063;-76
2021/12/08 09:34:19;;;;;;;34.85;22.85;;;;;;;;;;4980936;28;20102;-77
2021/12/08 09:36:50;;;;;;;36.40;23.25;;;;;;;;;;4984235;28;20026;-75
2021/12/08 09:39:23;;;;;;;38.42;24.08;;;;;;;;;;4982204;28;20042;-74
2021/12/08 09:41:55;;;;;;;34.72;23.92;;;;;;;;;;4980896;28;20049;-75
2021/12/08 09:44:43;;;;;;;36.22;23.58;;;;;;;;;;4986460;28;20084;-74
2021/12/08 09:47:12;;;;;;;40.10;24.40;;;;;;;;;;4979871;28;20101;-76
2021/12/08 09:49:39;;;;;;;35.70;24.20;;;;;;;;;;4983766;28;20018;-77
2021/12/08 09:52:08;;;;;;;29.65;20.52;;;;;;;;;;4979710;28;20027;-75
2021/12/08 09:54:34;;;;;;;33.58;21.63;;;;;;;;;;4981819;28;20027;-77
2021/12/08 09:57:06;;;;;;;34.13;22.83;;;;;;;;;;4982726;28;20084;-76
2021/12/08 09:59:48;;;;;;;33.47;20.10;;;;;;;;;;5000435;28;20042;-76
2021/12/08 10:02:18;;;;;;;27.83;19.70;;;;;;;;;;4983026;28;20082;-77
2021/12/08 10:04:44;;;;;;;29.98;20.08;;;;;;;;;;4991262;28;20033;-75
2021/12/08 10:07:11;;;;;;;31.85;20.05;;;;;;;;;;4980185;28;20082;-76
2021/12/08 10:09:39;;;;;;;28.60;19.50;;;;;;;;;;4981053;28;20085;-77
2021/12/08 10:12:06;;;;;;;30.95;18.35;;;;;;;;;;4973539;28;20061;-76
2021/12/08 10:14:34;;;;;;;30.55;20.90;;;;;;;;;;4985672;28;20090;-74
2021/12/08 10:17:17;;;;;;;27.20;19.17;;;;;;;;;;4989718;28;20154;-73
2021/12/08 10:19:46;;;;;;;46.25;28.52;;;;;;;;;;5003218;28;20038;-76
2021/12/08 10:22:18;;;;;;;30.75;20.27;;;;;;;;;;4978188;28;20507;-76
2021/12/08 10:25:02;;;;;;;31.63;20.77;;;;;;;;;;4983917;28;20037;-75
2021/12/08 10:27:28;;;;;;;34.85;22.63;;;;;;;;;;4980756;28;20042;-76
2021/12/08 10:30:14;;;;;;;37.00;24.10;;;;;;;;;;4978104;28;20377;-75
2021/12/08 10:32:40;;;;;;;39.25;24.45;;;;;;;;;;4979865;28;20106;-75
2021/12/08 10:35:07;;;;;;;31.58;21.95;;;;;;;;;;4984826;28;20030;-76
2021/12/08 10:37:33;;;;;;;33.53;21.80;;;;;;;;;;4975491;28;20035;-76
2021/12/08 10:40:09;;;;;;;38.25;26.08;;;;;;;;;;4983457;28;20046;-76
2021/12/08 10:42:46;;;;;;;37.65;23.95;;;;;;;;;;4982854;28;20026;-80
2021/12/08 10:47:55;;;;;;;36.83;23.67;;;;;;;;;;4813296;26;20047;-77
2021/12/08 10:56:19;;;;;;;45.43;27.73;;;;;;;;;;4939683;29;20498;-78
2021/12/08 10:58:58;;;;;;;35.55;24.92;;;;;;;;;;4951648;28;20043;-76
2021/12/08 11:01:28;;;;;;;40.30;24.90;;;;;;;;;;4947772;29;20040;-77
2021/12/08 11:04:00;;;;;;;39.80;24.05;;;;;;;;;;4913132;29;20174;-74
2021/12/08 11:06:29;;;;;;;36.20;23.80;;;;;;;;;;4927438;29;20031;-75
2021/12/08 11:08:56;;;;;;;37.25;23.88;;;;;;;;;;4922469;29;20032;-75
2021/12/08 11:11:30;;;;;;;33.75;21.42;;;;;;;;;;4935819;29;20470;-75
2021/12/08 11:13:59;;;;;;;26.77;19.10;;;;;;;;;;4941809;29;20488;-75
2021/12/08 11:16:31;;;;;;;31.88;20.58;;;;;;;;;;4936707;29;20032;-77
2021/12/08 11:19:17;;;;;;;62.45;28.48;;;;;;;;;;4938411;29;20044;-79
2021/12/08 11:21:47;;;;;;;36.20;20.60;;;;;;;;;;4946769;29;20050;-74
2021/12/08 11:24:19;;;;;;;37.58;21.05;;;;;;;;;;4943241;29;20093;-75
2021/12/08 11:26:56;;;;;;;34.15;19.48;;;;;;;;;;4933000;28;20086;-77
2021/12/08 11:29:22;;;;;;;27.23;19.52;;;;;;;;;;4941196;29;20062;-76
2021/12/08 11:31:59;;;;;;;26.83;18.00;;;;;;;;;;4963613;28;20027;-77
2021/12/08 11:34:27;;;;;;;27.15;19.45;;;;;;;;;;4941759;29;20043;-76
2021/12/08 11:36:58;;;;;;;34.40;23.35;;;;;;;;;;4946485;28;20204;-75
2021/12/08 11:39:37;;;;;;;32.75;18.27;;;;;;;;;;4964751;29;20032;-78
2021/12/08 11:42:10;;;;;;;25.90;16.42;;;;;;;;;;4934293;29;20036;-74
2021/12/08 11:44:38;;;;;;;23.17;16.33;;;;;;;;;;4952788;28;20035;-74
2021/12/08 11:47:09;;;;;;;27.33;19.38;;;;;;;;;;4952917;28;20059;-74
2021/12/08 11:49:40;;;;;;;24.27;16.88;;;;;;;;;;4935187;28;20128;-74
2021/12/08 11:52:12;;;;;;;25.63;17.88;;;;;;;;;;4956470;28;20019;-75
2021/12/08 11:54:42;;;;;;;26.13;18.13;;;;;;;;;;4957680;28;20097;-79
2021/12/08 11:57:11;;;;;;;24.42;17.40;;;;;;;;;;4951590;28;20117;-75
2021/12/08 11:59:46;;;;;;;24.30;15.82;;;;;;;;;;4950141;28;20030;-75
2021/12/08 12:02:15;;;;;;;23.13;16.08;;;;;;;;;;4976159;28;20035;-76
2021/12/08 12:04:42;;;;;;;28.33;16.73;;;;;;;;;;4952703;29;20086;-77
2021/12/08 12:07:10;;;;;;;23.83;15.88;;;;;;;;;;4960329;29;20031;-76
2021/12/08 12:09:36;;;;;;;25.90;16.27;;;;;;;;;;4956285;29;20031;-76
2021/12/08 12:12:09;;;;;;;25.75;16.08;;;;;;;;;;4934201;29;20034;-76
2021/12/08 12:14:57;;;;;;;23.73;15.68;;;;;;;;;;4953065;29;20111;-75
2021/12/08 12:17:31;;;;;;;23.38;16.25;;;;;;;;;;4949722;29;20560;-75
2021/12/08 12:20:28;;;;;;;26.13;15.65;;;;;;;;;;4936376;29;20040;-75
2021/12/08 12:23:16;;;;;;;25.33;16.13;;;;;;;;;;4955641;29;20106;-76
2021/12/08 12:26:06;;;;;;;24.35;15.98;;;;;;;;;;4996594;23;20074;-76
2021/12/08 12:28:53;;;;;;;27.40;16.42;;;;;;;;;;4976284;28;20027;-76
2021/12/08 12:31:55;;;;;;;23.77;16.85;;;;;;;;;;4956449;29;20493;-77
2021/12/08 12:34:43;;;;;;;23.65;15.75;;;;;;;;;;4932008;29;20433;-78
2021/12/08 12:37:48;;;;;;;27.23;15.80;;;;;;;;;;4948213;28;20441;-77
2021/12/08 12:40:19;;;;;;;25.00;15.50;;;;;;;;;;4948531;29;20171;-76
2021/12/08 12:43:20;;;;;;;27.02;16.52;;;;;;;;;;4936687;29;20072;-76
2021/12/08 12:46:16;;;;;;;24.70;16.58;;;;;;;;;;4884775;29;20051;-76
2021/12/08 12:49:20;;;;;;;28.38;19.38;;;;;;;;;;4923173;29;20035;-76
2021/12/08 12:51:56;;;;;;;28.48;18.80;;;;;;;;;;4901221;29;20063;-76
2021/12/08 12:54:27;;;;;;;29.45;19.88;;;;;;;;;;4927747;29;20040;-75
2021/12/08 12:56:57;;;;;;;27.40;17.08;;;;;;;;;;4930456;29;20064;-77
2021/12/08 12:59:27;;;;;;;24.58;16.80;;;;;;;;;;4933028;29;20032;-76
2021/12/08 13:02:12;;;;;;;28.08;16.92;;;;;;;;;;4940452;29;20028;-77
2021/12/08 13:04:58;;;;;;;27.42;18.52;;;;;;;;;;4942020;28;20068;-78
2021/12/08 13:07:28;;;;;;;31.65;20.77;;;;;;;;;;4951501;28;20139;-76
2021/12/08 13:10:07;;;;;;;33.05;22.42;;;;;;;;;;4973252;28;20062;-77
2021/12/08 13:12:36;;;;;;;34.72;21.83;;;;;;;;;;4965786;28;20050;-76
2021/12/08 13:15:12;;;;;;;43.17;25.73;;;;;;;;;;4964609;29;20044;-77
2021/12/08 13:18:11;;;;;;;34.67;23.13;;;;;;;;;;4978195;28;20083;-75
2021/12/08 13:20:56;;;;;;;36.58;24.90;;;;;;;;;;4882046;29;20542;-76
2021/12/08 13:23:42;;;;;;;34.55;22.70;;;;;;;;;;4881280;29;20048;-76
2021/12/08 13:26:19;;;;;;;37.17;23.48;;;;;;;;;;4868297;29;20033;-78
2021/12/08 13:29:03;;;;;;;37.53;24.23;;;;;;;;;;4868819;29;20496;-77
2021/12/08 13:31:48;;;;;;;37.33;24.13;;;;;;;;;;4859543;29;20484;-76
2021/12/08 13:34:26;;;;;;;41.67;25.63;;;;;;;;;;4858824;29;20030;-77
2021/12/08 13:36:53;;;;;;;38.67;26.35;;;;;;;;;;4876782;29;20045;-76
2021/12/08 13:39:24;;;;;;;38.70;24.05;;;;;;;;;;4881646;29;20069;-77
2021/12/08 13:41:54;;;;;;;40.72;24.50;;;;;;;;;;4884357;29;20045;-79
2021/12/08 13:44:55;;;;;;;43.45;26.52;;;;;;;;;;4873226;29;20025;-79
2021/12/08 13:47:24;;;;;;;39.45;25.05;;;;;;;;;;4896222;29;20041;-77
2021/12/08 13:50:01;;;;;;;43.22;24.52;;;;;;;;;;4896145;29;20085;-77
2021/12/08 13:52:45;;;;;;;40.70;26.90;;;;;;;;;;4884120;29;20029;-77
2021/12/08 13:55:31;;;;;;;39.08;25.55;;;;;;;;;;4906476;29;20015;-77
2021/12/08 13:58:04;;;;;;;39.10;27.05;;;;;;;;;;4981359;28;20074;-77
2021/12/08 14:00:41;;;;;;;47.88;29.08;;;;;;;;;;4972469;28;20032;-78
2021/12/08 14:03:54;;;;;;;49.85;28.65;;;;;;;;;;4929299;29;20044;-78
2021/12/08 14:06:21;;;;;;;36.00;25.75;;;;;;;;;;4847717;29;20034;-77
2021/12/08 14:08:50;;;;;;;38.75;26.27;;;;;;;;;;4833181;29;20033;-79
2021/12/08 14:11:29;;;;;;;40.00;25.27;;;;;;;;;;4842834;29;20079;-78
2021/12/08 14:13:55;;;;;;;41.75;26.05;;;;;;;;;;4840538;29;20034;-76
2021/12/08 14:16:23;;;;;;;43.20;27.23;;;;;;;;;;4840442;29;20041;-76
2021/12/08 14:18:53;;;;;;;42.30;26.02;;;;;;;;;;4828344;29;20038;-78
2021/12/08 14:21:32;;;;;;;41.63;24.58;;;;;;;;;;4830593;29;20042;-77
2021/12/08 14:24:03;;;;;;;44.38;25.63;;;;;;;;;;4819101;29;20057;-77
2021/12/08 14:26:35;;;;;;;39.03;24.55;;;;;;;;;;4838526;29;20042;-77
2021/12/08 14:29:01;;;;;;;44.08;26.88;;;;;;;;;;4864436;29;20116;-76
2021/12/08 14:31:27;;;;;;;48.60;27.98;;;;;;;;;;4861567;29;20061;-77
2021/12/08 14:34:02;;;;;;;44.55;27.88;;;;;;;;;;4862274;29;20060;-77
2021/12/08 14:36:28;;;;;;;47.78;29.42;;;;;;;;;;4855013;29;20562;-75
2021/12/08 14:38:54;;;;;;;45.75;29.98;;;;;;;;;;4864469;29;20048;-79
2021/12/08 14:41:22;;;;;;;47.47;29.40;;;;;;;;;;4935722;29;20056;-77
2021/12/08 14:43:52;;;;;;;44.92;29.20;;;;;;;;;;4928188;29;20051;-76
2021/12/08 14:46:20;;;;;;;48.67;29.65;;;;;;;;;;4935879;29;20026;-78
2021/12/08 14:48:55;;;;;;;51.78;30.85;;;;;;;;;;4938115;29;20147;-77
2021/12/08 14:51:24;;;;;;;50.35;30.08;;;;;;;;;;4938197;29;20035;-78
2021/12/08 14:53:50;;;;;;;45.80;29.80;;;;;;;;;;4927860;29;20059;-77
2021/12/08 14:56:17;;;;;;;54.15;31.45;;;;;;;;;;4934307;29;21872;-77
2021/12/08 14:58:43;;;;;;;50.33;32.75;;;;;;;;;;4937600;29;20212;-76
2021/12/08 15:01:13;;;;;;;55.20;31.98;;;;;;;;;;4969214;28;20023;-76
2021/12/08 15:03:40;;;;;;;53.22;32.80;;;;;;;;;;4963871;28;20023;-77
2021/12/08 15:06:26;;;;;;;52.67;32.95;;;;;;;;;;4991021;28;20090;-79
2021/12/08 15:12:34;;;;;;;58.63;34.17;;;;;;;;;;4937045;29;20026;-78
2021/12/08 15:15:00;;;;;;;53.90;33.35;;;;;;;;;;4958418;28;20011;-77
2021/12/08 15:17:49;;;;;;;54.42;31.80;;;;;;;;;;4945849;29;20043;-78
2021/12/08 15:20:21;;;;;;;51.78;30.95;;;;;;;;;;4915494;29;20040;-80
2021/12/08 15:31:59;;;;;;;50.58;28.45;;;;;;;;;;5379838;23;20071;-75
2021/12/08 15:34:32;;;;;;;50.78;32.28;;;;;;;;;;4968969;28;20062;-78
2021/12/08 15:37:13;;;;;;;53.03;31.25;;;;;;;;;;5004520;23;20052;-75
2021/12/08 15:39:40;;;;;;;53.60;32.22;;;;;;;;;;4936284;29;20028;-78
2021/12/08 15:42:21;;;;;;;49.15;31.23;;;;;;;;;;4928529;29;20043;-78
2021/12/08 15:44:47;;;;;;;46.13;30.38;;;;;;;;;;4939480;29;20083;-78
2021/12/08 15:47:14;;;;;;;56.47;34.15;;;;;;;;;;4944432;29;20027;-78